sensor_id;sensor_type;location;lat;lon;timestamp;P1;durP1;ratioP1;P2;durP2;ratioP2
61144;SDS011;47026;51.208;3.288;2022-10-28T00:00:04;17.85;;;4.95;;
61144;SDS011;47026;51.208;3.288;2022-10-28T00:02:31;13.23;;;4.95;;
61144;SDS011;47026;51.208;3.288;2022-10-28T00:04:57;16.30;;;5.53;;
61144;SDS011;47026;51.208;3.288;2022-10-28T00:07:23;10.90;;;5.25;;
61144;SDS011;47026;51.208;3.288;2022-10-28T00:09:48;11.52;;;5.12;;
61144;SDS011;47026;51.208;3.288;2022-10-28T00:12:14;11.43;;;5.18;;
61144;SDS011;47026;51.208;3.288;2022-10-28T00:14:40;11.50;;;4.87;;
61144;SDS011;47026;51.208;3.288;2022-10-28T00:17:06;11.52;;;5.10;;
61144;SDS011;47026;51.208;3.288;2022-10-28T00:19:32;12.65;;;5.35;;
61144;SDS011;47026;51.208;3.288;2022-10-28T00:21:58;11.85;;;4.85;;
61144;SDS011;47026;51.208;3.288;2022-10-28T00:24:24;11.12;;;4.62;;
61144;SDS011;47026;51.208;3.288;2022-10-28T00:26:49;14.20;;;5.00;;
61144;SDS011;47026;51.208;3.288;2022-10-28T00:29:16;11.18;;;4.80;;
61144;SDS011;47026;51.208;3.288;2022-10-28T00:31:44;13.20;;;5.05;;
61144;SDS011;47026;51.208;3.288;2022-10-28T00:34:12;12.45;;;5.25;;
61144;SDS011;47026;51.208;3.288;2022-10-28T00:36:41;9.43;;;5.07;;
61144;SDS011;47026;51.208;3.288;2022-10-28T00:39:18;10.68;;;4.80;;
61144;SDS011;47026;51.208;3.288;2022-10-28T00:41:47;15.40;;;5.68;;
61144;SDS011;47026;51.208;3.288;2022-10-28T00:49:39;9.98;;;4.82;;
61144;SDS011;47026;51.208;3.288;2022-10-28T00:52:08;11.63;;;4.93;;
61144;SDS011;47026;51.208;3.288;2022-10-28T00:54:37;13.27;;;4.75;;
61144;SDS011;47026;51.208;3.288;2022-10-28T00:57:05;12.00;;;5.30;;
61144;SDS011;47026;51.208;3.288;2022-10-28T00:59:36;12.50;;;5.03;;
61144;SDS011;47026;51.208;3.288;2022-10-28T01:02:05;13.45;;;4.93;;
61144;SDS011;47026;51.208;3.288;2022-10-28T01:04:32;14.35;;;4.95;;
61144;SDS011;47026;51.208;3.288;2022-10-28T01:06:58;10.13;;;5.53;;
61144;SDS011;47026;51.208;3.288;2022-10-28T01:09:25;12.63;;;4.97;;
61144;SDS011;47026;51.208;3.288;2022-10-28T01:11:58;12.82;;;5.30;;
61144;SDS011;47026;51.208;3.288;2022-10-28T01:17:31;12.00;;;4.68;;
61144;SDS011;47026;51.208;3.288;2022-10-28T01:22:57;11.15;;;5.80;;
61144;SDS011;47026;51.208;3.288;2022-10-28T01:28:25;13.13;;;5.10;;
61144;SDS011;47026;51.208;3.288;2022-10-28T01:36:56;17.00;;;6.18;;
61144;SDS011;47026;51.208;3.288;2022-10-28T01:50:26;9.80;;;4.70;;
61144;SDS011;47026;51.208;3.288;2022-10-28T01:53:09;12.48;;;5.35;;
61144;SDS011;47026;51.208;3.288;2022-10-28T01:55:42;9.32;;;5.00;;
61144;SDS011;47026;51.208;3.288;2022-10-28T01:58:12;10.35;;;4.95;;
61144;SDS011;47026;51.208;3.288;2022-10-28T02:00:43;13.00;;;5.35;;
61144;SDS011;47026;51.208;3.288;2022-10-28T02:03:10;12.23;;;5.45;;
61144;SDS011;47026;51.208;3.288;2022-10-28T02:05:48;9.57;;;4.93;;
61144;SDS011;47026;51.208;3.288;2022-10-28T02:13:15;13.80;;;5.10;;
61144;SDS011;47026;51.208;3.288;2022-10-28T02:18:59;16.77;;;5.90;;
61144;SDS011;47026;51.208;3.288;2022-10-28T02:21:41;16.45;;;5.32;;
61144;SDS011;47026;51.208;3.288;2022-10-28T02:24:27;15.40;;;5.30;;
61144;SDS011;47026;51.208;3.288;2022-10-28T02:27:15;14.80;;;5.62;;
61144;SDS011;47026;51.208;3.288;2022-10-28T02:32:28;12.23;;;5.55;;
61144;SDS011;47026;51.208;3.288;2022-10-28T02:34:59;11.43;;;5.50;;
61144;SDS011;47026;51.208;3.288;2022-10-28T02:37:28;13.55;;;4.93;;
61144;SDS011;47026;51.208;3.288;2022-10-28T02:39:58;11.20;;;5.57;;
61144;SDS011;47026;51.208;3.288;2022-10-28T02:42:39;10.65;;;5.20;;
61144;SDS011;47026;51.208;3.288;2022-10-28T02:45:19;13.25;;;5.18;;
61144;SDS011;47026;51.208;3.288;2022-10-28T02:47:51;10.07;;;5.20;;
61144;SDS011;47026;51.208;3.288;2022-10-28T02:50:24;14.30;;;5.53;;
61144;SDS011;47026;51.208;3.288;2022-10-28T02:53:15;15.10;;;5.47;;
61144;SDS011;47026;51.208;3.288;2022-10-28T02:55:48;10.55;;;5.80;;
61144;SDS011;47026;51.208;3.288;2022-10-28T02:58:16;13.70;;;5.65;;
61144;SDS011;47026;51.208;3.288;2022-10-28T03:00:43;12.20;;;5.93;;
61144;SDS011;47026;51.208;3.288;2022-10-28T03:03:09;11.23;;;5.25;;
61144;SDS011;47026;51.208;3.288;2022-10-28T03:05:35;11.73;;;5.43;;
61144;SDS011;47026;51.208;3.288;2022-10-28T03:08:01;11.68;;;5.37;;
61144;SDS011;47026;51.208;3.288;2022-10-28T03:10:27;12.00;;;5.53;;
61144;SDS011;47026;51.208;3.288;2022-10-28T03:15:19;12.52;;;5.32;;
61144;SDS011;47026;51.208;3.288;2022-10-28T03:17:45;12.65;;;5.47;;
61144;SDS011;47026;51.208;3.288;2022-10-28T03:22:36;16.62;;;5.40;;
61144;SDS011;47026;51.208;3.288;2022-10-28T03:27:28;13.68;;;4.95;;
61144;SDS011;47026;51.208;3.288;2022-10-28T03:29:54;16.45;;;5.50;;
61144;SDS011;47026;51.208;3.288;2022-10-28T03:32:20;14.00;;;5.50;;
61144;SDS011;47026;51.208;3.288;2022-10-28T03:37:12;10.63;;;5.68;;
61144;SDS011;47026;51.208;3.288;2022-10-28T03:39:38;13.73;;;5.62;;
61144;SDS011;47026;51.208;3.288;2022-10-28T03:44:30;11.95;;;5.07;;
61144;SDS011;47026;51.208;3.288;2022-10-28T03:49:21;11.07;;;5.05;;
61144;SDS011;47026;51.208;3.288;2022-10-28T03:54:13;11.15;;;4.90;;
61144;SDS011;47026;51.208;3.288;2022-10-28T03:56:39;14.27;;;5.40;;
61144;SDS011;47026;51.208;3.288;2022-10-28T04:01:31;14.65;;;5.65;;
61144;SDS011;47026;51.208;3.288;2022-10-28T04:06:22;10.07;;;5.35;;
61144;SDS011;47026;51.208;3.288;2022-10-28T04:11:13;17.77;;;5.20;;
61144;SDS011;47026;51.208;3.288;2022-10-28T04:16:05;14.00;;;5.65;;
61144;SDS011;47026;51.208;3.288;2022-10-28T04:18:31;15.88;;;5.62;;
61144;SDS011;47026;51.208;3.288;2022-10-28T04:20:59;13.90;;;5.57;;
61144;SDS011;47026;51.208;3.288;2022-10-28T04:23:25;11.12;;;5.40;;
61144;SDS011;47026;51.208;3.288;2022-10-28T04:28:18;14.52;;;5.25;;
61144;SDS011;47026;51.208;3.288;2022-10-28T04:30:47;15.27;;;5.97;;
61144;SDS011;47026;51.208;3.288;2022-10-28T04:33:13;15.90;;;5.65;;
61144;SDS011;47026;51.208;3.288;2022-10-28T04:35:40;15.95;;;5.25;;
61144;SDS011;47026;51.208;3.288;2022-10-28T04:38:10;15.02;;;5.72;;
61144;SDS011;47026;51.208;3.288;2022-10-28T04:40:36;15.60;;;5.37;;
61144;SDS011;47026;51.208;3.288;2022-10-28T04:43:02;13.95;;;5.75;;
61144;SDS011;47026;51.208;3.288;2022-10-28T04:45:29;13.02;;;5.87;;
61144;SDS011;47026;51.208;3.288;2022-10-28T04:47:58;13.30;;;5.28;;
61144;SDS011;47026;51.208;3.288;2022-10-28T04:50:25;14.55;;;5.45;;
61144;SDS011;47026;51.208;3.288;2022-10-28T04:52:52;18.27;;;6.05;;
61144;SDS011;47026;51.208;3.288;2022-10-28T04:55:18;14.32;;;5.80;;
61144;SDS011;47026;51.208;3.288;2022-10-28T04:57:54;18.45;;;6.43;;
61144;SDS011;47026;51.208;3.288;2022-10-28T05:02:47;10.90;;;5.65;;
61144;SDS011;47026;51.208;3.288;2022-10-28T05:05:13;15.65;;;5.90;;
61144;SDS011;47026;51.208;3.288;2022-10-28T05:07:39;9.95;;;5.00;;
61144;SDS011;47026;51.208;3.288;2022-10-28T05:12:31;11.38;;;5.70;;
61144;SDS011;47026;51.208;3.288;2022-10-28T05:17:23;16.10;;;5.57;;
61144;SDS011;47026;51.208;3.288;2022-10-28T05:22:14;13.05;;;6.25;;
61144;SDS011;47026;51.208;3.288;2022-10-28T05:27:06;14.93;;;5.20;;
61144;SDS011;47026;51.208;3.288;2022-10-28T05:29:32;12.50;;;5.62;;
61144;SDS011;47026;51.208;3.288;2022-10-28T05:31:58;12.02;;;5.78;;
61144;SDS011;47026;51.208;3.288;2022-10-28T05:34:24;16.45;;;5.90;;
61144;SDS011;47026;51.208;3.288;2022-10-28T05:39:16;9.15;;;5.30;;
61144;SDS011;47026;51.208;3.288;2022-10-28T05:41:42;16.87;;;5.75;;
61144;SDS011;47026;51.208;3.288;2022-10-28T05:46:33;13.25;;;5.20;;
61144;SDS011;47026;51.208;3.288;2022-10-28T05:51:25;10.82;;;5.43;;
61144;SDS011;47026;51.208;3.288;2022-10-28T05:56:17;13.00;;;5.32;;
61144;SDS011;47026;51.208;3.288;2022-10-28T05:58:42;12.85;;;5.75;;
61144;SDS011;47026;51.208;3.288;2022-10-28T06:03:34;10.88;;;4.80;;
61144;SDS011;47026;51.208;3.288;2022-10-28T06:06:00;14.80;;;5.60;;
61144;SDS011;47026;51.208;3.288;2022-10-28T06:10:52;13.15;;;5.45;;
61144;SDS011;47026;51.208;3.288;2022-10-28T06:13:19;13.73;;;5.22;;
61144;SDS011;47026;51.208;3.288;2022-10-28T06:15:54;16.23;;;5.75;;
61144;SDS011;47026;51.208;3.288;2022-10-28T06:18:21;12.07;;;4.70;;
61144;SDS011;47026;51.208;3.288;2022-10-28T06:20:54;11.63;;;5.53;;
61144;SDS011;47026;51.208;3.288;2022-10-28T06:23:21;11.18;;;4.82;;
61144;SDS011;47026;51.208;3.288;2022-10-28T06:25:48;10.15;;;4.55;;
61144;SDS011;47026;51.208;3.288;2022-10-28T06:28:14;13.43;;;4.97;;
61144;SDS011;47026;51.208;3.288;2022-10-28T06:30:40;12.27;;;5.10;;
61144;SDS011;47026;51.208;3.288;2022-10-28T06:35:32;14.35;;;4.72;;
61144;SDS011;47026;51.208;3.288;2022-10-28T06:40:24;12.37;;;4.93;;
61144;SDS011;47026;51.208;3.288;2022-10-28T06:42:57;15.88;;;5.30;;
61144;SDS011;47026;51.208;3.288;2022-10-28T06:47:54;13.20;;;4.97;;
61144;SDS011;47026;51.208;3.288;2022-10-28T06:50:21;12.07;;;5.25;;
61144;SDS011;47026;51.208;3.288;2022-10-28T06:55:12;11.38;;;5.07;;
61144;SDS011;47026;51.208;3.288;2022-10-28T07:00:04;17.58;;;5.32;;
61144;SDS011;47026;51.208;3.288;2022-10-28T07:02:30;13.07;;;5.60;;
61144;SDS011;47026;51.208;3.288;2022-10-28T07:07:22;13.13;;;5.10;;
61144;SDS011;47026;51.208;3.288;2022-10-28T07:09:48;16.27;;;5.05;;
61144;SDS011;47026;51.208;3.288;2022-10-28T07:12:14;12.05;;;5.40;;
61144;SDS011;47026;51.208;3.288;2022-10-28T07:17:06;11.73;;;5.03;;
61144;SDS011;47026;51.208;3.288;2022-10-28T07:21:57;13.02;;;4.72;;
61144;SDS011;47026;51.208;3.288;2022-10-28T07:24:23;13.00;;;5.72;;
61144;SDS011;47026;51.208;3.288;2022-10-28T07:29:15;17.87;;;5.55;;
61144;SDS011;47026;51.208;3.288;2022-10-28T07:31:41;15.60;;;5.28;;
61144;SDS011;47026;51.208;3.288;2022-10-28T07:36:32;17.92;;;4.60;;
61144;SDS011;47026;51.208;3.288;2022-10-28T07:38:58;12.52;;;4.20;;
61144;SDS011;47026;51.208;3.288;2022-10-28T07:41:24;16.62;;;4.78;;
61144;SDS011;47026;51.208;3.288;2022-10-28T07:43:50;13.40;;;5.57;;
61144;SDS011;47026;51.208;3.288;2022-10-28T07:46:16;9.15;;;4.12;;
61144;SDS011;47026;51.208;3.288;2022-10-28T07:48:43;11.38;;;4.32;;
61144;SDS011;47026;51.208;3.288;2022-10-28T07:51:11;11.82;;;4.57;;
61144;SDS011;47026;51.208;3.288;2022-10-28T07:53:38;13.68;;;5.12;;
61144;SDS011;47026;51.208;3.288;2022-10-28T07:56:06;11.70;;;4.32;;
61144;SDS011;47026;51.208;3.288;2022-10-28T07:58:34;13.20;;;4.57;;
61144;SDS011;47026;51.208;3.288;2022-10-28T08:01:01;12.85;;;4.87;;
61144;SDS011;47026;51.208;3.288;2022-10-28T08:03:28;11.38;;;4.53;;
61144;SDS011;47026;51.208;3.288;2022-10-28T08:06:04;15.77;;;4.75;;
61144;SDS011;47026;51.208;3.288;2022-10-28T08:08:32;14.43;;;5.15;;
61144;SDS011;47026;51.208;3.288;2022-10-28T08:10:58;12.75;;;5.03;;
61144;SDS011;47026;51.208;3.288;2022-10-28T08:13:33;16.55;;;4.57;;
61144;SDS011;47026;51.208;3.288;2022-10-28T08:15:59;16.60;;;5.12;;
61144;SDS011;47026;51.208;3.288;2022-10-28T08:18:25;8.95;;;4.32;;
61144;SDS011;47026;51.208;3.288;2022-10-28T08:20:51;12.18;;;4.97;;
61144;SDS011;47026;51.208;3.288;2022-10-28T08:23:16;12.63;;;4.70;;
61144;SDS011;47026;51.208;3.288;2022-10-28T08:25:47;15.48;;;5.90;;
61144;SDS011;47026;51.208;3.288;2022-10-28T08:28:14;16.45;;;6.75;;
61144;SDS011;47026;51.208;3.288;2022-10-28T08:30:40;13.62;;;5.85;;
61144;SDS011;47026;51.208;3.288;2022-10-28T08:33:06;23.73;;;7.43;;
61144;SDS011;47026;51.208;3.288;2022-10-28T08:35:31;20.92;;;7.80;;
61144;SDS011;47026;51.208;3.288;2022-10-28T08:37:59;15.55;;;5.68;;
61144;SDS011;47026;51.208;3.288;2022-10-28T08:40:29;12.43;;;4.53;;
61144;SDS011;47026;51.208;3.288;2022-10-28T08:49:33;12.18;;;4.30;;
61144;SDS011;47026;51.208;3.288;2022-10-28T08:57:55;11.88;;;4.28;;
61144;SDS011;47026;51.208;3.288;2022-10-28T09:00:31;12.75;;;4.10;;
61144;SDS011;47026;51.208;3.288;2022-10-28T09:05:36;11.05;;;3.87;;
61144;SDS011;47026;51.208;3.288;2022-10-28T09:08:21;11.73;;;3.85;;
61144;SDS011;47026;51.208;3.288;2022-10-28T09:11:00;12.15;;;3.85;;
61144;SDS011;47026;51.208;3.288;2022-10-28T09:16:34;14.60;;;3.85;;
61144;SDS011;47026;51.208;3.288;2022-10-28T09:22:04;11.45;;;4.00;;
61144;SDS011;47026;51.208;3.288;2022-10-28T09:24:46;14.00;;;3.90;;
61144;SDS011;47026;51.208;3.288;2022-10-28T09:32:58;13.32;;;4.40;;
61144;SDS011;47026;51.208;3.288;2022-10-28T09:35:46;15.07;;;4.60;;
61144;SDS011;47026;51.208;3.288;2022-10-28T09:41:03;11.93;;;4.30;;
61144;SDS011;47026;51.208;3.288;2022-10-28T09:43:31;11.25;;;3.97;;
61144;SDS011;47026;51.208;3.288;2022-10-28T09:46:01;15.52;;;4.20;;
61144;SDS011;47026;51.208;3.288;2022-10-28T09:48:38;15.13;;;4.00;;
61144;SDS011;47026;51.208;3.288;2022-10-28T09:51:10;13.13;;;3.75;;
61144;SDS011;47026;51.208;3.288;2022-10-28T09:53:59;14.68;;;4.62;;
61144;SDS011;47026;51.208;3.288;2022-10-28T09:56:26;9.32;;;3.80;;
61144;SDS011;47026;51.208;3.288;2022-10-28T09:58:54;11.07;;;4.43;;
61144;SDS011;47026;51.208;3.288;2022-10-28T10:01:24;11.50;;;4.20;;
61144;SDS011;47026;51.208;3.288;2022-10-28T10:03:51;13.85;;;4.55;;
61144;SDS011;47026;51.208;3.288;2022-10-28T10:06:18;13.38;;;4.03;;
61144;SDS011;47026;51.208;3.288;2022-10-28T10:08:45;11.57;;;4.43;;
61144;SDS011;47026;51.208;3.288;2022-10-28T10:14:14;13.15;;;4.10;;
61144;SDS011;47026;51.208;3.288;2022-10-28T10:16:52;10.27;;;3.70;;
61144;SDS011;47026;51.208;3.288;2022-10-28T10:19:51;12.48;;;4.68;;
61144;SDS011;47026;51.208;3.288;2022-10-28T10:22:29;8.13;;;3.77;;
61144;SDS011;47026;51.208;3.288;2022-10-28T10:25:00;8.57;;;3.83;;
61144;SDS011;47026;51.208;3.288;2022-10-28T10:27:27;8.63;;;4.10;;
61144;SDS011;47026;51.208;3.288;2022-10-28T10:29:54;11.43;;;3.50;;
61144;SDS011;47026;51.208;3.288;2022-10-28T10:32:24;10.38;;;4.10;;
61144;SDS011;47026;51.208;3.288;2022-10-28T10:35:03;12.00;;;4.00;;
61144;SDS011;47026;51.208;3.288;2022-10-28T10:42:44;14.82;;;6.00;;
61144;SDS011;47026;51.208;3.288;2022-10-28T10:47:40;13.50;;;4.28;;
61144;SDS011;47026;51.208;3.288;2022-10-28T10:50:39;12.37;;;4.03;;
61144;SDS011;47026;51.208;3.288;2022-10-28T10:52:59;12.30;;;4.53;;
61144;SDS011;47026;51.208;3.288;2022-10-28T10:55:33;9.02;;;4.20;;
61144;SDS011;47026;51.208;3.288;2022-10-28T10:58:01;10.98;;;4.30;;
61144;SDS011;47026;51.208;3.288;2022-10-28T11:00:30;14.32;;;4.12;;
61144;SDS011;47026;51.208;3.288;2022-10-28T11:03:00;13.60;;;4.53;;
61144;SDS011;47026;51.208;3.288;2022-10-28T11:05:27;12.60;;;4.03;;
61144;SDS011;47026;51.208;3.288;2022-10-28T11:07:53;10.90;;;4.03;;
61144;SDS011;47026;51.208;3.288;2022-10-28T11:10:28;11.65;;;4.20;;
61144;SDS011;47026;51.208;3.288;2022-10-28T11:12:56;10.35;;;3.72;;
61144;SDS011;47026;51.208;3.288;2022-10-28T11:15:26;10.27;;;3.65;;
61144;SDS011;47026;51.208;3.288;2022-10-28T11:18:15;10.55;;;4.10;;
61144;SDS011;47026;51.208;3.288;2022-10-28T11:25:42;12.30;;;4.07;;
61144;SDS011;47026;51.208;3.288;2022-10-28T11:36:49;13.93;;;4.12;;
61144;SDS011;47026;51.208;3.288;2022-10-28T11:39:36;10.82;;;3.75;;
61144;SDS011;47026;51.208;3.288;2022-10-28T11:50:25;13.45;;;3.75;;
61144;SDS011;47026;51.208;3.288;2022-10-28T11:53:19;11.18;;;3.75;;
61144;SDS011;47026;51.208;3.288;2022-10-28T12:04:42;10.48;;;3.70;;
61144;SDS011;47026;51.208;3.288;2022-10-28T12:07:44;11.98;;;3.78;;
61144;SDS011;47026;51.208;3.288;2022-10-28T12:10:23;13.52;;;4.05;;
61144;SDS011;47026;51.208;3.288;2022-10-28T12:13:19;10.98;;;4.05;;
61144;SDS011;47026;51.208;3.288;2022-10-28T12:16:16;13.85;;;3.95;;
61144;SDS011;47026;51.208;3.288;2022-10-28T12:18:50;14.82;;;3.90;;
61144;SDS011;47026;51.208;3.288;2022-10-28T12:21:55;10.88;;;4.05;;
61144;SDS011;47026;51.208;3.288;2022-10-28T12:24:23;14.75;;;4.15;;
61144;SDS011;47026;51.208;3.288;2022-10-28T12:26:51;14.18;;;3.83;;
61144;SDS011;47026;51.208;3.288;2022-10-28T12:29:22;11.48;;;4.20;;
61144;SDS011;47026;51.208;3.288;2022-10-28T12:32:04;13.23;;;3.90;;
61144;SDS011;47026;51.208;3.288;2022-10-28T12:34:34;9.90;;;4.00;;
61144;SDS011;47026;51.208;3.288;2022-10-28T12:39:44;9.52;;;3.97;;
61144;SDS011;47026;51.208;3.288;2022-10-28T12:42:23;8.90;;;3.65;;
61144;SDS011;47026;51.208;3.288;2022-10-28T12:44:56;12.30;;;4.03;;
61144;SDS011;47026;51.208;3.288;2022-10-28T12:55:43;7.80;;;3.87;;
61144;SDS011;47026;51.208;3.288;2022-10-28T12:58:26;12.15;;;4.20;;
61144;SDS011;47026;51.208;3.288;2022-10-28T13:01:00;12.02;;;4.90;;
61144;SDS011;47026;51.208;3.288;2022-10-28T13:03:31;13.43;;;3.97;;
61144;SDS011;47026;51.208;3.288;2022-10-28T13:17:19;9.75;;;4.05;;
61144;SDS011;47026;51.208;3.288;2022-10-28T13:19:51;12.25;;;3.97;;
61144;SDS011;47026;51.208;3.288;2022-10-28T13:27:30;11.70;;;4.15;;
61144;SDS011;47026;51.208;3.288;2022-10-28T13:29:56;10.70;;;3.95;;
61144;SDS011;47026;51.208;3.288;2022-10-28T13:32:35;15.38;;;4.25;;
61144;SDS011;47026;51.208;3.288;2022-10-28T13:38:00;13.35;;;3.65;;
61144;SDS011;47026;51.208;3.288;2022-10-28T13:42:59;13.45;;;4.10;;
61144;SDS011;47026;51.208;3.288;2022-10-28T13:48:56;8.85;;;4.30;;
61144;SDS011;47026;51.208;3.288;2022-10-28T13:53:39;9.45;;;3.70;;
61144;SDS011;47026;51.208;3.288;2022-10-28T14:04:18;13.18;;;2.78;;
61144;SDS011;47026;51.208;3.288;2022-10-28T14:06:59;11.63;;;3.45;;
61144;SDS011;47026;51.208;3.288;2022-10-28T14:09:34;8.00;;;2.95;;
61144;SDS011;47026;51.208;3.288;2022-10-28T14:14:57;8.68;;;2.53;;
61144;SDS011;47026;51.208;3.288;2022-10-28T14:17:28;9.88;;;2.47;;
61144;SDS011;47026;51.208;3.288;2022-10-28T14:19:59;7.47;;;2.25;;
61144;SDS011;47026;51.208;3.288;2022-10-28T14:22:28;7.37;;;2.55;;
61144;SDS011;47026;51.208;3.288;2022-10-28T14:24:56;10.05;;;2.83;;
61144;SDS011;47026;51.208;3.288;2022-10-28T14:27:39;7.53;;;2.47;;
61144;SDS011;47026;51.208;3.288;2022-10-28T14:30:10;9.73;;;2.40;;
61144;SDS011;47026;51.208;3.288;2022-10-28T14:33:08;11.43;;;3.13;;
61144;SDS011;47026;51.208;3.288;2022-10-28T14:35:42;11.45;;;2.80;;
61144;SDS011;47026;51.208;3.288;2022-10-28T14:40:50;10.25;;;2.45;;
61144;SDS011;47026;51.208;3.288;2022-10-28T14:43:53;10.82;;;2.70;;
61144;SDS011;47026;51.208;3.288;2022-10-28T14:49:24;11.35;;;3.00;;
61144;SDS011;47026;51.208;3.288;2022-10-28T14:51:54;7.72;;;2.78;;
61144;SDS011;47026;51.208;3.288;2022-10-28T14:57:01;8.45;;;2.72;;
61144;SDS011;47026;51.208;3.288;2022-10-28T14:59:31;7.18;;;2.92;;
61144;SDS011;47026;51.208;3.288;2022-10-28T15:04:33;14.05;;;3.17;;
61144;SDS011;47026;51.208;3.288;2022-10-28T15:06:58;9.00;;;3.10;;
61144;SDS011;47026;51.208;3.288;2022-10-28T15:09:28;9.02;;;2.92;;
61144;SDS011;47026;51.208;3.288;2022-10-28T15:11:56;9.95;;;2.95;;
61144;SDS011;47026;51.208;3.288;2022-10-28T15:14:26;13.60;;;2.78;;
61144;SDS011;47026;51.208;3.288;2022-10-28T15:19:32;9.00;;;3.28;;
61144;SDS011;47026;51.208;3.288;2022-10-28T15:22:02;11.00;;;2.80;;
61144;SDS011;47026;51.208;3.288;2022-10-28T15:24:28;9.98;;;3.03;;
61144;SDS011;47026;51.208;3.288;2022-10-28T15:26:57;11.93;;;3.50;;
61144;SDS011;47026;51.208;3.288;2022-10-28T15:29:23;12.70;;;3.22;;
61144;SDS011;47026;51.208;3.288;2022-10-28T15:32:01;9.85;;;2.92;;
61144;SDS011;47026;51.208;3.288;2022-10-28T15:37:23;12.40;;;3.63;;
61144;SDS011;47026;51.208;3.288;2022-10-28T15:39:52;12.20;;;3.60;;
61144;SDS011;47026;51.208;3.288;2022-10-28T15:45:44;10.85;;;4.10;;
61144;SDS011;47026;51.208;3.288;2022-10-28T15:48:11;14.48;;;4.35;;
61144;SDS011;47026;51.208;3.288;2022-10-28T15:50:42;12.82;;;3.75;;
61144;SDS011;47026;51.208;3.288;2022-10-28T15:55:34;12.15;;;3.95;;
61144;SDS011;47026;51.208;3.288;2022-10-28T15:58:01;7.68;;;3.10;;
61144;SDS011;47026;51.208;3.288;2022-10-28T16:00:54;9.55;;;3.35;;
61144;SDS011;47026;51.208;3.288;2022-10-28T16:03:25;9.70;;;3.20;;
61144;SDS011;47026;51.208;3.288;2022-10-28T16:06:03;12.45;;;3.60;;
61144;SDS011;47026;51.208;3.288;2022-10-28T16:08:30;11.57;;;4.00;;
61144;SDS011;47026;51.208;3.288;2022-10-28T16:10:58;16.83;;;4.10;;
61144;SDS011;47026;51.208;3.288;2022-10-28T16:13:37;15.98;;;4.93;;
61144;SDS011;47026;51.208;3.288;2022-10-28T16:18:41;11.88;;;3.78;;
61144;SDS011;47026;51.208;3.288;2022-10-28T16:21:18;10.43;;;3.90;;
61144;SDS011;47026;51.208;3.288;2022-10-28T16:23:47;10.23;;;4.65;;
61144;SDS011;47026;51.208;3.288;2022-10-28T16:26:15;17.83;;;4.28;;
61144;SDS011;47026;51.208;3.288;2022-10-28T16:28:41;16.50;;;4.10;;
61144;SDS011;47026;51.208;3.288;2022-10-28T16:31:08;12.35;;;3.90;;
61144;SDS011;47026;51.208;3.288;2022-10-28T16:33:39;11.68;;;3.85;;
61144;SDS011;47026;51.208;3.288;2022-10-28T16:36:05;28.15;;;11.25;;
61144;SDS011;47026;51.208;3.288;2022-10-28T16:38:31;18.35;;;5.28;;
61144;SDS011;47026;51.208;3.288;2022-10-28T16:40:57;17.10;;;4.37;;
61144;SDS011;47026;51.208;3.288;2022-10-28T16:43:24;13.50;;;4.00;;
61144;SDS011;47026;51.208;3.288;2022-10-28T16:45:52;16.10;;;4.50;;
61144;SDS011;47026;51.208;3.288;2022-10-28T16:48:20;19.00;;;4.50;;
61144;SDS011;47026;51.208;3.288;2022-10-28T16:50:48;11.93;;;4.68;;
61144;SDS011;47026;51.208;3.288;2022-10-28T16:53:19;19.27;;;5.32;;
61144;SDS011;47026;51.208;3.288;2022-10-28T16:55:45;21.50;;;4.82;;
61144;SDS011;47026;51.208;3.288;2022-10-28T16:58:11;16.00;;;4.93;;
61144;SDS011;47026;51.208;3.288;2022-10-28T17:00:37;26.40;;;5.20;;
61144;SDS011;47026;51.208;3.288;2022-10-28T17:03:03;13.52;;;4.10;;
61144;SDS011;47026;51.208;3.288;2022-10-28T17:05:29;23.58;;;4.20;;
61144;SDS011;47026;51.208;3.288;2022-10-28T17:07:55;18.12;;;5.00;;
61144;SDS011;47026;51.208;3.288;2022-10-28T17:10:23;17.05;;;5.47;;
61144;SDS011;47026;51.208;3.288;2022-10-28T17:12:50;14.73;;;4.68;;
61144;SDS011;47026;51.208;3.288;2022-10-28T17:15:16;15.55;;;4.85;;
61144;SDS011;47026;51.208;3.288;2022-10-28T17:17:42;22.95;;;4.53;;
61144;SDS011;47026;51.208;3.288;2022-10-28T17:20:08;14.52;;;3.90;;
61144;SDS011;47026;51.208;3.288;2022-10-28T17:22:34;13.25;;;3.83;;
61144;SDS011;47026;51.208;3.288;2022-10-28T17:25:00;14.55;;;4.87;;
61144;SDS011;47026;51.208;3.288;2022-10-28T17:27:26;17.08;;;4.15;;
61144;SDS011;47026;51.208;3.288;2022-10-28T17:29:52;12.77;;;5.40;;
61144;SDS011;47026;51.208;3.288;2022-10-28T17:32:18;18.00;;;4.10;;
61144;SDS011;47026;51.208;3.288;2022-10-28T17:34:44;16.73;;;4.68;;
61144;SDS011;47026;51.208;3.288;2022-10-28T17:37:10;20.90;;;5.00;;
61144;SDS011;47026;51.208;3.288;2022-10-28T17:39:36;19.10;;;4.95;;
61144;SDS011;47026;51.208;3.288;2022-10-28T17:42:02;18.25;;;4.95;;
61144;SDS011;47026;51.208;3.288;2022-10-28T17:44:28;19.85;;;4.95;;
61144;SDS011;47026;51.208;3.288;2022-10-28T17:46:54;17.62;;;5.25;;
61144;SDS011;47026;51.208;3.288;2022-10-28T17:49:19;19.48;;;5.43;;
61144;SDS011;47026;51.208;3.288;2022-10-28T17:51:45;18.50;;;5.82;;
61144;SDS011;47026;51.208;3.288;2022-10-28T17:54:11;19.80;;;5.03;;
61144;SDS011;47026;51.208;3.288;2022-10-28T17:56:37;16.58;;;5.00;;
61144;SDS011;47026;51.208;3.288;2022-10-28T17:59:05;19.70;;;5.57;;
61144;SDS011;47026;51.208;3.288;2022-10-28T18:01:32;20.08;;;4.82;;
61144;SDS011;47026;51.208;3.288;2022-10-28T18:03:59;13.30;;;4.62;;
61144;SDS011;47026;51.208;3.288;2022-10-28T18:06:25;15.85;;;4.47;;
61144;SDS011;47026;51.208;3.288;2022-10-28T18:08:51;19.12;;;5.30;;
61144;SDS011;47026;51.208;3.288;2022-10-28T18:11:17;15.18;;;4.90;;
61144;SDS011;47026;51.208;3.288;2022-10-28T18:13:45;16.60;;;4.70;;
61144;SDS011;47026;51.208;3.288;2022-10-28T18:16:15;16.95;;;5.05;;
61144;SDS011;47026;51.208;3.288;2022-10-28T18:18:44;15.88;;;4.97;;
61144;SDS011;47026;51.208;3.288;2022-10-28T18:21:11;16.05;;;5.05;;
61144;SDS011;47026;51.208;3.288;2022-10-28T18:23:37;20.40;;;4.78;;
61144;SDS011;47026;51.208;3.288;2022-10-28T18:28:37;15.57;;;4.45;;
61144;SDS011;47026;51.208;3.288;2022-10-28T18:31:05;16.00;;;4.45;;
61144;SDS011;47026;51.208;3.288;2022-10-28T18:33:33;22.00;;;6.10;;
61144;SDS011;47026;51.208;3.288;2022-10-28T18:36:03;15.13;;;4.45;;
61144;SDS011;47026;51.208;3.288;2022-10-28T18:38:31;17.05;;;4.40;;
61144;SDS011;47026;51.208;3.288;2022-10-28T18:40:57;15.10;;;4.65;;
61144;SDS011;47026;51.208;3.288;2022-10-28T18:43:23;14.95;;;4.35;;
61144;SDS011;47026;51.208;3.288;2022-10-28T18:45:49;14.13;;;4.15;;
61144;SDS011;47026;51.208;3.288;2022-10-28T18:48:16;13.00;;;3.80;;
61144;SDS011;47026;51.208;3.288;2022-10-28T18:50:42;15.82;;;4.18;;
61144;SDS011;47026;51.208;3.288;2022-10-28T18:53:18;14.75;;;4.65;;
61144;SDS011;47026;51.208;3.288;2022-10-28T18:55:44;11.43;;;3.72;;
61144;SDS011;47026;51.208;3.288;2022-10-28T18:58:10;13.75;;;3.80;;
61144;SDS011;47026;51.208;3.288;2022-10-28T19:00:38;9.57;;;3.30;;
61144;SDS011;47026;51.208;3.288;2022-10-28T19:03:05;12.02;;;3.50;;
61144;SDS011;47026;51.208;3.288;2022-10-28T19:05:43;14.50;;;2.95;;
61144;SDS011;47026;51.208;3.288;2022-10-28T19:08:09;9.13;;;3.08;;
61144;SDS011;47026;51.208;3.288;2022-10-28T19:10:35;12.68;;;3.00;;
61144;SDS011;47026;51.208;3.288;2022-10-28T19:13:01;9.27;;;2.70;;
61144;SDS011;47026;51.208;3.288;2022-10-28T19:15:27;11.18;;;2.80;;
61144;SDS011;47026;51.208;3.288;2022-10-28T19:17:53;13.25;;;2.95;;
61144;SDS011;47026;51.208;3.288;2022-10-28T19:22:44;14.15;;;3.25;;